createdAt,value
2019-06-18T00:00:28.001Z,965.50
2019-06-18T00:01:28.086Z,891.50
2019-06-18T00:02:28.099Z,921.60
2019-06-18T00:03:28.130Z,887.60
2019-06-18T00:04:30.391Z,898.20
2019-06-18T00:05:31.110Z,887.40
2019-06-18T00:06:28.281Z,919.90
2019-06-18T00:07:31.112Z,999.90
2019-06-18T00:08:30.704Z,929.80
2019-06-18T00:09:31.370Z,941.30
2019-06-18T00:10:30.808Z,973.60
2019-06-18T00:11:30.522Z,876.70
2019-06-18T00:12:30.829Z,931.10
2019-06-18T00:13:30.886Z,948.80
2019-06-18T00:14:31.185Z,960.20
2019-06-18T00:15:41.776Z,942.20
2019-06-18T00:16:30.458Z,940.30
2019-06-18T00:17:30.947Z,948.40
2019-06-18T00:18:30.889Z,945.00
2019-06-18T00:19:31.207Z,962.90
2019-06-18T00:20:32.579Z,943.50
2019-06-18T00:21:30.630Z,945.20
2019-06-18T00:22:31.057Z,983.20
2019-06-18T00:23:30.571Z,927.20
2019-06-18T00:24:31.063Z,957.80
2019-06-18T00:25:30.921Z,999.90
2019-06-18T00:26:30.572Z,925.40
2019-06-18T00:27:30.999Z,965.70
2019-06-18T00:28:30.355Z,879.90
2019-06-18T00:29:31.451Z,999.90
2019-06-18T00:30:31.469Z,935.40
2019-06-18T00:31:31.164Z,999.90
2019-06-18T00:32:30.633Z,922.90
2019-06-18T00:33:30.415Z,935.00
2019-06-18T00:34:31.174Z,925.20
2019-06-18T00:35:30.457Z,938.30
2019-06-18T00:36:31.047Z,931.40
2019-06-18T00:37:30.361Z,999.90
2019-06-18T00:38:31.076Z,972.80
2019-06-18T00:39:29.694Z,999.90
2019-06-18T00:40:30.073Z,983.30
2019-06-18T00:41:29.779Z,928.80
2019-06-18T00:42:32.261Z,972.50
2019-06-18T00:43:29.867Z,971.10
2019-06-18T00:44:29.947Z,906.00
2019-06-18T00:45:29.960Z,924.90
2019-06-18T00:46:30.045Z,937.00
2019-06-18T00:47:30.044Z,968.30
2019-06-18T00:48:30.094Z,922.30
2019-06-18T00:49:30.132Z,983.90
2019-06-18T00:50:30.162Z,930.70
2019-06-18T00:51:30.216Z,950.50
2019-06-18T00:52:30.255Z,952.40
2019-06-18T00:53:30.312Z,943.70
2019-06-18T00:54:30.349Z,995.30
2019-06-18T00:55:30.375Z,935.40
2019-06-18T00:56:30.459Z,913.80
2019-06-18T00:57:30.496Z,874.00
2019-06-18T00:58:30.511Z,968.50
2019-06-18T00:59:30.549Z,999.90
2019-06-18T01:00:30.601Z,950.40
2019-06-18T01:01:30.665Z,955.10
2019-06-18T01:02:30.690Z,966.30
2019-06-18T01:03:30.723Z,951.80
2019-06-18T01:04:30.790Z,919.20
2019-06-18T01:05:30.820Z,974.20
2019-06-18T01:06:30.900Z,846.50
2019-06-18T01:07:30.908Z,922.80
2019-06-18T01:08:31.004Z,998.60
2019-06-18T01:09:31.003Z,934.80
2019-06-18T01:10:31.076Z,981.00
2019-06-18T01:11:31.228Z,956.40
2019-06-18T01:12:31.187Z,999.90
2019-06-18T01:13:31.226Z,999.90
2019-06-18T01:14:31.261Z,965.20
2019-06-18T01:15:31.316Z,970.80
2019-06-18T01:16:31.309Z,958.20
2019-06-18T01:17:31.338Z,971.10
2019-06-18T01:18:31.438Z,999.90
2019-06-18T01:19:31.416Z,996.40
2019-06-18T01:20:31.515Z,963.60
2019-06-18T01:21:31.642Z,999.90
2019-06-18T01:22:31.555Z,961.00
2019-06-18T01:23:31.600Z,999.90
2019-06-18T01:24:32.289Z,970.70
2019-06-18T01:25:32.615Z,999.90
2019-06-18T01:26:32.876Z,999.90
2019-06-18T01:27:33.126Z,999.90
2019-06-18T01:28:32.590Z,951.80
2019-06-18T01:29:32.719Z,853.80
2019-06-18T01:30:32.759Z,886.50
2019-06-18T01:31:32.714Z,891.20
2019-06-18T01:32:32.857Z,807.90
2019-06-18T01:33:32.467Z,943.00
2019-06-18T01:34:33.863Z,932.10
2019-06-18T01:35:32.500Z,988.40
2019-06-18T01:36:33.023Z,941.00
2019-06-18T01:37:32.996Z,952.80
2019-06-18T01:38:33.942Z,964.50
2019-06-18T01:39:33.457Z,978.60
2019-06-18T01:40:32.966Z,987.80
2019-06-18T01:41:32.840Z,999.90
2019-06-18T01:42:32.493Z,999.90
2019-06-18T01:43:33.423Z,876.40
2019-06-18T01:44:32.848Z,910.90
2019-06-18T01:45:33.392Z,841.70
2019-06-18T01:46:38.143Z,796.20
2019-06-18T01:47:32.601Z,914.00
2019-06-18T01:48:32.871Z,916.80
2019-06-18T01:49:32.704Z,920.60
2019-06-18T01:50:33.143Z,930.70
2019-06-18T01:51:33.450Z,948.00
2019-06-18T01:52:32.831Z,921.60
2019-06-18T01:53:32.979Z,941.40
2019-06-18T01:54:32.922Z,999.90
2019-06-18T01:55:33.928Z,999.90
2019-06-18T01:56:33.011Z,783.90
2019-06-18T01:57:33.076Z,895.10
2019-06-18T01:58:33.275Z,936.00
2019-06-18T01:59:33.581Z,872.40
2019-06-18T02:00:33.597Z,903.90
2019-06-18T02:01:33.217Z,880.80
2019-06-18T02:02:33.712Z,872.70
2019-06-18T02:03:33.282Z,910.80
2019-06-18T02:04:33.349Z,851.80
2019-06-18T02:05:33.891Z,882.70
2019-06-18T02:06:33.462Z,875.30
2019-06-18T02:07:33.594Z,927.70
2019-06-18T02:08:33.500Z,857.20
2019-06-18T02:09:33.559Z,869.20
2019-06-18T02:10:33.682Z,871.40
2019-06-18T02:11:33.647Z,862.50
2019-06-18T02:12:33.685Z,871.80
2019-06-18T02:13:33.758Z,803.60
2019-06-18T02:14:33.774Z,891.50
2019-06-18T02:15:33.802Z,906.20
2019-06-18T02:16:49.677Z,857.40
2019-06-18T02:17:33.884Z,880.10
2019-06-18T02:18:33.926Z,866.70
2019-06-18T02:19:33.981Z,879.80
2019-06-18T02:20:37.930Z,962.60
2019-06-18T02:21:34.062Z,875.80
2019-06-18T02:22:34.127Z,846.40
2019-06-18T02:23:34.159Z,862.70
2019-06-18T02:24:34.190Z,845.70
2019-06-18T02:25:34.250Z,850.40
2019-06-18T02:26:34.296Z,911.00
2019-06-18T02:27:34.329Z,882.50
2019-06-18T02:28:34.376Z,832.10
2019-06-18T02:29:34.406Z,860.00
2019-06-18T02:30:34.701Z,863.50
2019-06-18T02:31:35.269Z,853.60
2019-06-18T02:32:34.537Z,854.70
2019-06-18T02:33:34.646Z,844.30
2019-06-18T02:34:34.638Z,835.30
2019-06-18T02:35:34.678Z,892.80
2019-06-18T02:36:34.711Z,796.00
2019-06-18T02:37:34.751Z,802.30
2019-06-18T02:38:34.828Z,784.30
2019-06-18T02:39:34.823Z,789.30
2019-06-18T02:40:34.872Z,801.00
2019-06-18T02:41:34.911Z,816.70
2019-06-18T02:42:34.942Z,797.20
2019-06-18T02:43:34.999Z,819.20
2019-06-18T02:44:35.059Z,832.30
2019-06-18T02:45:35.091Z,814.30
2019-06-18T02:46:35.108Z,801.40
2019-06-18T02:47:35.180Z,823.30
2019-06-18T02:48:35.241Z,810.30
2019-06-18T02:49:35.245Z,831.60
2019-06-18T02:50:35.352Z,801.70
2019-06-18T02:51:35.338Z,802.90
2019-06-18T02:52:35.385Z,880.00
2019-06-18T02:53:35.426Z,827.80
2019-06-18T02:54:35.457Z,823.10
2019-06-18T02:55:35.491Z,848.10
2019-06-18T02:56:35.575Z,820.30
2019-06-18T02:57:35.570Z,865.60
2019-06-18T02:58:35.641Z,801.50
2019-06-18T02:59:35.676Z,849.10
2019-06-18T03:00:35.703Z,845.40
2019-06-18T03:01:35.772Z,830.30
2019-06-18T03:02:35.809Z,830.90
2019-06-18T03:03:35.847Z,826.30
2019-06-18T03:04:35.918Z,819.60
2019-06-18T03:05:35.936Z,828.50
2019-06-18T03:06:35.965Z,800.40
2019-06-18T03:07:36.013Z,850.60
2019-06-18T03:08:36.049Z,833.10
2019-06-18T03:09:36.108Z,999.90
2019-06-18T03:10:36.135Z,867.30
2019-06-18T03:11:36.183Z,884.80
2019-06-18T03:12:36.227Z,891.90
2019-06-18T03:13:36.298Z,882.10
2019-06-18T03:14:36.339Z,892.20
2019-06-18T03:15:36.359Z,877.50
2019-06-18T03:16:36.408Z,873.90
2019-06-18T03:17:36.432Z,888.60
2019-06-18T03:18:36.494Z,881.10
2019-06-18T03:19:36.514Z,885.90
2019-06-18T03:20:36.550Z,885.80
2019-06-18T03:21:36.607Z,887.90
2019-06-18T03:22:36.646Z,893.50
2019-06-18T03:23:36.688Z,937.30
2019-06-18T03:24:36.744Z,907.60
2019-06-18T03:25:36.791Z,873.20
2019-06-18T03:26:36.803Z,870.10
2019-06-18T03:27:36.831Z,874.50
2019-06-18T03:28:36.905Z,875.80
2019-06-18T03:29:36.952Z,867.80
2019-06-18T03:30:36.996Z,895.60
2019-06-18T03:31:37.034Z,913.20
2019-06-18T03:32:37.078Z,907.60
2019-06-18T03:33:41.380Z,911.20
2019-06-18T03:34:37.160Z,926.80
2019-06-18T03:35:37.211Z,942.40
2019-06-18T03:36:37.275Z,949.90
2019-06-18T03:37:37.289Z,909.00
2019-06-18T03:38:37.368Z,924.70
2019-06-18T03:39:37.355Z,916.60
2019-06-18T03:40:37.415Z,920.60
2019-06-18T03:41:37.538Z,913.70
2019-06-18T03:42:37.573Z,895.40
2019-06-18T03:43:37.550Z,901.40
2019-06-18T03:44:37.566Z,883.40
2019-06-18T03:45:37.632Z,881.40
2019-06-18T03:46:37.652Z,887.30
2019-06-18T03:47:45.897Z,885.20
2019-06-18T03:48:37.789Z,884.80
2019-06-18T03:49:37.793Z,889.50
2019-06-18T03:50:37.845Z,876.60
2019-06-18T03:51:37.863Z,871.90
2019-06-18T03:52:37.909Z,869.70
2019-06-18T03:53:37.967Z,863.10
2019-06-18T03:54:38.006Z,868.70
2019-06-18T03:55:38.092Z,853.20
2019-06-18T03:56:38.077Z,869.50
2019-06-18T03:57:38.138Z,872.20
2019-06-18T03:58:38.164Z,880.00
2019-06-18T03:59:38.221Z,867.20
2019-06-18T04:00:38.269Z,880.50
2019-06-18T04:01:38.307Z,856.90
2019-06-18T04:02:38.351Z,854.00
2019-06-18T04:03:38.382Z,848.50
2019-06-18T04:04:38.435Z,853.70
2019-06-18T04:05:38.463Z,854.80
2019-06-18T04:06:38.507Z,833.90
2019-06-18T04:07:38.555Z,859.30
2019-06-18T04:08:38.622Z,856.70
2019-06-18T04:09:38.649Z,856.70
2019-06-18T04:10:38.698Z,851.80
2019-06-18T04:11:38.742Z,846.20
2019-06-18T04:12:38.771Z,853.20
2019-06-18T04:13:38.845Z,846.70
2019-06-18T04:14:38.848Z,857.10
2019-06-18T04:15:38.898Z,872.60
2019-06-18T04:16:38.942Z,888.60
2019-06-18T04:17:38.986Z,872.50
2019-06-18T04:18:39.034Z,865.40
2019-06-18T04:19:39.077Z,880.90
2019-06-18T04:20:39.111Z,879.30
2019-06-18T04:21:39.124Z,903.30
2019-06-18T04:22:39.171Z,874.70
2019-06-18T04:23:39.255Z,885.30
2019-06-18T04:24:39.277Z,880.40
2019-06-18T04:25:39.318Z,891.70
2019-06-18T04:26:39.365Z,974.20
2019-06-18T04:27:39.404Z,901.90
2019-06-18T04:28:39.445Z,880.00
2019-06-18T04:29:39.503Z,895.80
2019-06-18T04:30:39.563Z,915.70
2019-06-18T04:31:39.579Z,910.20
2019-06-18T04:32:39.622Z,923.90
2019-06-18T04:33:39.656Z,937.60
2019-06-18T04:34:39.683Z,906.70
2019-06-18T04:35:42.257Z,896.50
2019-06-18T04:36:42.261Z,920.40
2019-06-18T04:37:39.834Z,910.20
2019-06-18T04:38:39.874Z,912.90
2019-06-18T04:39:42.480Z,917.10
2019-06-18T04:40:42.584Z,917.90
2019-06-18T04:41:40.008Z,928.00
2019-06-18T04:42:42.223Z,882.10
2019-06-18T04:43:40.116Z,884.40
2019-06-18T04:44:40.228Z,867.60
2019-06-18T04:45:40.171Z,832.20
2019-06-18T04:46:42.911Z,844.90
2019-06-18T04:47:43.187Z,844.50
2019-06-18T04:48:42.884Z,847.60
2019-06-18T04:49:42.829Z,838.60
2019-06-18T04:50:40.375Z,825.70
2019-06-18T04:51:42.825Z,887.60
2019-06-18T04:52:42.894Z,726.00
2019-06-18T04:53:42.853Z,716.00
2019-06-18T04:54:42.697Z,711.80
2019-06-18T04:55:42.619Z,760.00
2019-06-18T04:56:43.184Z,734.80
2019-06-18T04:57:42.413Z,711.70
2019-06-18T04:58:43.176Z,684.50
2019-06-18T04:59:42.708Z,649.90
2019-06-18T05:00:40.819Z,668.40
2019-06-18T05:01:43.104Z,633.20
2019-06-18T05:02:43.167Z,652.10
2019-06-18T05:03:43.244Z,680.00
2019-06-18T05:04:42.594Z,659.00
2019-06-18T05:05:42.948Z,705.90
2019-06-18T05:06:42.652Z,707.10
2019-06-18T05:07:42.576Z,727.80
2019-06-18T05:08:42.474Z,713.90
2019-06-18T05:09:43.056Z,707.30
2019-06-18T05:10:43.052Z,708.10
2019-06-18T05:11:43.068Z,737.50
2019-06-18T05:12:43.544Z,704.60
2019-06-18T05:13:43.061Z,721.00
2019-06-18T05:14:42.671Z,689.50
2019-06-18T05:15:43.398Z,698.60
2019-06-18T05:16:43.051Z,688.20
2019-06-18T05:17:43.026Z,732.50
2019-06-18T05:18:44.099Z,719.30
2019-06-18T05:19:43.699Z,719.70
2019-06-18T05:20:43.264Z,689.70
2019-06-18T05:21:43.101Z,719.10
2019-06-18T05:22:43.194Z,724.40
2019-06-18T05:23:43.036Z,711.10
2019-06-18T05:24:42.759Z,723.40
2019-06-18T05:25:42.413Z,714.20
2019-06-18T05:26:43.196Z,671.00
2019-06-18T05:27:42.556Z,659.40
2019-06-18T05:28:43.492Z,701.60
2019-06-18T05:29:42.759Z,722.60
2019-06-18T05:30:43.460Z,721.00
2019-06-18T05:31:42.950Z,813.80
2019-06-18T05:32:43.183Z,757.80
2019-06-18T05:33:42.555Z,755.20
2019-06-18T05:34:42.730Z,760.60
2019-06-18T05:35:43.116Z,779.70
2019-06-18T05:36:42.743Z,799.00
2019-06-18T05:37:42.659Z,755.50
2019-06-18T05:38:43.155Z,790.70
2019-06-18T05:39:43.762Z,750.90
2019-06-18T05:40:42.763Z,793.50
2019-06-18T05:41:43.420Z,846.60
2019-06-18T05:42:42.849Z,818.10
2019-06-18T05:43:43.241Z,823.50
2019-06-18T05:44:43.300Z,811.40
2019-06-18T05:45:42.650Z,815.60
2019-06-18T05:46:43.395Z,816.30
2019-06-18T05:47:42.868Z,830.30
2019-06-18T05:48:53.703Z,834.70
2019-06-18T05:49:43.297Z,796.00
2019-06-18T05:50:43.564Z,808.60
2019-06-18T05:51:42.948Z,811.00
2019-06-18T05:52:42.959Z,812.90
2019-06-18T05:53:43.219Z,771.40
2019-06-18T05:54:43.033Z,810.00
2019-06-18T05:55:43.520Z,807.50
2019-06-18T05:56:43.366Z,722.70
2019-06-18T05:57:43.143Z,667.00
2019-06-18T05:58:43.187Z,687.50
2019-06-18T05:59:43.225Z,661.20
2019-06-18T06:00:43.289Z,625.60
2019-06-18T06:01:43.902Z,668.30
2019-06-18T06:02:43.382Z,664.60
2019-06-18T06:03:43.382Z,639.40
2019-06-18T06:04:43.475Z,644.00
2019-06-18T06:05:43.490Z,764.90
2019-06-18T06:06:43.803Z,658.70
2019-06-18T06:07:43.566Z,626.10
2019-06-18T06:08:43.593Z,632.50
2019-06-18T06:09:43.653Z,619.80
2019-06-18T06:10:43.691Z,640.00
2019-06-18T06:11:43.813Z,708.70
2019-06-18T06:12:43.777Z,842.40
2019-06-18T06:13:43.790Z,855.90
2019-06-18T06:14:43.862Z,836.70
2019-06-18T06:15:43.895Z,865.60
2019-06-18T06:16:43.949Z,797.50
2019-06-18T06:17:44.004Z,814.60
2019-06-18T06:18:44.029Z,844.60
2019-06-18T06:19:44.047Z,853.50
2019-06-18T06:20:44.107Z,870.00
2019-06-18T06:21:44.117Z,877.90
2019-06-18T06:22:44.199Z,807.10
2019-06-18T06:23:44.233Z,891.00
2019-06-18T06:24:44.247Z,874.90
2019-06-18T06:25:44.318Z,865.40
2019-06-18T06:26:44.329Z,975.50
2019-06-18T06:27:44.414Z,923.40
2019-06-18T06:28:44.425Z,867.00
2019-06-18T06:29:44.480Z,853.90
2019-06-18T06:30:44.502Z,865.00
2019-06-18T06:31:44.549Z,903.10
2019-06-18T06:32:44.584Z,871.00
2019-06-18T06:33:44.613Z,920.40
2019-06-18T06:34:44.666Z,956.70
2019-06-18T06:35:44.724Z,898.20
2019-06-18T06:36:44.746Z,981.30
2019-06-18T06:37:44.795Z,994.60
2019-06-18T06:38:44.842Z,999.90
2019-06-18T06:39:44.886Z,999.90
2019-06-18T06:40:44.918Z,999.90
2019-06-18T06:41:44.967Z,999.90
2019-06-18T06:42:45.007Z,999.90
2019-06-18T06:43:45.042Z,999.90
2019-06-18T06:44:45.063Z,999.90
2019-06-18T06:45:45.176Z,999.90
2019-06-18T06:46:45.169Z,999.90
2019-06-18T06:47:45.209Z,999.90
2019-06-18T06:48:45.245Z,991.60
2019-06-18T06:49:45.324Z,999.90
2019-06-18T06:50:45.337Z,999.90
2019-06-18T06:51:45.354Z,999.90
2019-06-18T06:52:45.415Z,999.90
2019-06-18T06:53:45.454Z,999.90
2019-06-18T06:54:45.483Z,976.50
2019-06-18T06:55:45.532Z,907.80
2019-06-18T06:56:45.577Z,999.90
2019-06-18T06:57:45.634Z,938.30
2019-06-18T06:58:45.657Z,999.90
2019-06-18T06:59:45.703Z,999.90
2019-06-18T07:00:45.779Z,934.80
2019-06-18T07:01:45.768Z,999.90
2019-06-18T07:02:45.830Z,999.90
2019-06-18T07:03:45.879Z,946.90
2019-06-18T07:04:45.904Z,986.60
2019-06-18T07:05:45.937Z,999.90
2019-06-18T07:06:45.961Z,986.30
2019-06-18T07:07:46.019Z,929.90
2019-06-18T07:08:46.051Z,999.90
2019-06-18T07:09:46.106Z,999.90
2019-06-18T07:10:46.137Z,980.20
2019-06-18T07:11:46.155Z,963.40
2019-06-18T07:12:46.231Z,962.10
2019-06-18T07:13:46.421Z,999.90
2019-06-18T07:14:46.296Z,960.00
2019-06-18T07:15:46.351Z,967.80
2019-06-18T07:16:46.394Z,905.60
2019-06-18T07:17:46.445Z,900.20
2019-06-18T07:18:46.470Z,999.90
2019-06-18T07:19:53.603Z,999.90
2019-06-18T07:20:46.550Z,999.90
2019-06-18T07:21:46.585Z,916.00
2019-06-18T07:22:46.622Z,934.30
2019-06-18T07:23:46.666Z,976.00
2019-06-18T07:24:46.719Z,999.90
2019-06-18T07:25:46.739Z,999.90
2019-06-18T07:26:46.775Z,999.90
2019-06-18T07:27:46.830Z,999.90
2019-06-18T07:28:46.874Z,999.90
2019-06-18T07:29:46.915Z,999.90
2019-06-18T07:30:46.975Z,999.90
2019-06-18T07:31:47.015Z,999.90
2019-06-18T07:32:47.050Z,999.90
2019-06-18T07:33:47.093Z,999.90
2019-06-18T07:34:47.149Z,999.90
2019-06-18T07:35:47.168Z,999.90
2019-06-18T07:36:47.219Z,999.90
2019-06-18T07:37:47.258Z,999.90
2019-06-18T07:38:47.266Z,999.10
2019-06-18T07:39:47.333Z,981.20
2019-06-18T07:40:47.376Z,999.90
2019-06-18T07:41:47.403Z,999.90
2019-06-18T07:42:47.460Z,999.90
2019-06-18T07:43:47.503Z,999.90
2019-06-18T07:44:47.557Z,999.90
2019-06-18T07:45:47.573Z,999.90
2019-06-18T07:46:47.614Z,999.90
2019-06-18T07:47:47.644Z,999.90
2019-06-18T07:48:47.683Z,999.90
2019-06-18T07:49:47.729Z,999.90
2019-06-18T07:50:47.793Z,999.90
2019-06-18T07:51:47.823Z,999.90
2019-06-18T07:52:47.849Z,989.90
2019-06-18T07:53:47.912Z,999.90
2019-06-18T07:54:47.943Z,999.90
2019-06-18T07:55:47.982Z,999.90
2019-06-18T07:56:48.015Z,999.90
2019-06-18T07:57:48.067Z,999.90
2019-06-18T07:58:48.119Z,992.20
2019-06-18T07:59:48.147Z,896.50
2019-06-18T08:00:48.222Z,935.00
2019-06-18T08:01:48.241Z,873.10
2019-06-18T08:02:48.309Z,869.30
2019-06-18T08:03:48.312Z,996.50
2019-06-18T08:04:48.343Z,853.00
2019-06-18T08:05:48.400Z,860.70
2019-06-18T08:06:48.443Z,857.20
2019-06-18T08:07:48.481Z,857.90
2019-06-18T08:08:48.525Z,850.30
2019-06-18T08:09:48.570Z,867.00
2019-06-18T08:10:48.620Z,895.00
2019-06-18T08:11:48.646Z,837.30
2019-06-18T08:12:48.845Z,868.50
2019-06-18T08:13:48.760Z,891.90
2019-06-18T08:14:48.788Z,910.20
2019-06-18T08:15:48.807Z,864.30
2019-06-18T08:16:48.853Z,956.90
2019-06-18T08:17:48.879Z,886.80
2019-06-18T08:18:48.929Z,862.50
2019-06-18T08:19:48.980Z,862.20
2019-06-18T08:20:49.005Z,977.10
2019-06-18T08:21:49.050Z,960.20
2019-06-18T08:22:49.102Z,937.90
2019-06-18T08:23:49.127Z,918.60
2019-06-18T08:24:49.164Z,999.90
2019-06-18T08:25:49.238Z,999.90
2019-06-18T08:26:49.321Z,989.20
2019-06-18T08:27:49.277Z,903.10
2019-06-18T08:28:49.346Z,882.00
2019-06-18T08:29:49.357Z,852.90
2019-06-18T08:30:49.427Z,874.60
2019-06-18T08:31:57.568Z,999.90
2019-06-18T08:32:49.489Z,999.90
2019-06-18T08:33:49.552Z,961.50
2019-06-18T08:34:49.609Z,835.80
2019-06-18T08:35:49.605Z,999.90
2019-06-18T08:36:49.667Z,875.80
2019-06-18T08:37:49.698Z,868.20
2019-06-18T08:38:49.740Z,899.50
2019-06-18T08:39:49.798Z,834.40
2019-06-18T08:40:49.824Z,901.80
2019-06-18T08:41:52.081Z,907.20
2019-06-18T08:42:49.951Z,889.70
2019-06-18T08:43:52.911Z,904.70
2019-06-18T08:44:49.972Z,895.30
2019-06-18T08:45:50.017Z,905.40
2019-06-18T08:46:52.448Z,912.20
2019-06-18T08:47:50.119Z,825.30
2019-06-18T08:48:52.875Z,930.90
2019-06-18T08:49:50.193Z,895.20
2019-06-18T08:50:51.480Z,928.60
2019-06-18T08:51:53.242Z,945.20
2019-06-18T08:52:53.026Z,921.40
2019-06-18T08:53:50.357Z,934.00
2019-06-18T08:54:53.102Z,941.90
2019-06-18T08:55:52.613Z,937.90
2019-06-18T08:56:52.729Z,922.30
2019-06-18T08:57:52.961Z,906.50
2019-06-18T08:58:52.425Z,919.00
2019-06-18T08:59:52.575Z,892.70
2019-06-18T09:00:53.010Z,854.00
2019-06-18T09:01:53.577Z,866.90
2019-06-18T09:02:52.332Z,937.90
2019-06-18T09:03:52.316Z,999.90
2019-06-18T09:04:53.093Z,897.20
2019-06-18T09:05:52.406Z,875.50
2019-06-18T09:06:53.253Z,840.70
2019-06-18T09:07:53.566Z,896.80
2019-06-18T09:08:53.531Z,945.40
2019-06-18T09:09:53.187Z,875.20
2019-06-18T09:10:53.428Z,776.40
2019-06-18T09:11:52.420Z,924.70
2019-06-18T09:12:53.114Z,994.80
2019-06-18T09:13:53.253Z,999.90
2019-06-18T09:14:52.400Z,882.40
2019-06-18T09:15:53.422Z,977.40
2019-06-18T09:16:52.696Z,974.20
2019-06-18T09:17:52.617Z,999.90
2019-06-18T09:18:53.742Z,999.90
2019-06-18T09:19:53.113Z,999.90
2019-06-18T09:21:01.428Z,999.90
2019-06-18T09:21:52.419Z,839.00
2019-06-18T09:22:52.998Z,870.30
2019-06-18T09:23:52.811Z,883.80
2019-06-18T09:24:53.253Z,999.90
2019-06-18T09:25:53.427Z,864.40
2019-06-18T09:26:53.273Z,892.80
2019-06-18T09:27:52.882Z,817.70
2019-06-18T09:28:53.454Z,795.00
2019-06-18T09:29:52.786Z,799.00
2019-06-18T09:30:52.989Z,893.70
2019-06-18T09:31:53.024Z,801.90
2019-06-18T09:32:53.357Z,957.90
2019-06-18T09:33:53.674Z,999.90
2019-06-18T09:34:53.492Z,976.60
2019-06-18T09:35:53.582Z,999.90
2019-06-18T09:36:53.267Z,867.30
2019-06-18T09:37:53.385Z,881.70
2019-06-18T09:38:53.524Z,901.90
2019-06-18T09:39:53.562Z,785.20
2019-06-18T09:40:53.248Z,765.30
2019-06-18T09:41:53.670Z,817.60
2019-06-18T09:42:53.484Z,768.00
2019-06-18T09:43:52.639Z,766.90
2019-06-18T09:44:53.560Z,739.90
2019-06-18T09:45:53.202Z,860.20
2019-06-18T09:46:53.654Z,757.40
2019-06-18T09:47:53.267Z,753.20
2019-06-18T09:48:53.109Z,751.80
2019-06-18T09:49:53.452Z,808.40
2019-06-18T09:50:53.203Z,812.60
2019-06-18T09:51:53.328Z,841.00
2019-06-18T09:52:53.683Z,966.10
2019-06-18T09:53:53.727Z,890.60
2019-06-18T09:54:53.116Z,833.50
2019-06-18T09:55:53.403Z,945.60
2019-06-18T09:56:53.040Z,868.50
2019-06-18T09:57:53.226Z,999.90
2019-06-18T09:58:53.901Z,917.00
2019-06-18T09:59:53.032Z,911.70
2019-06-18T10:00:53.347Z,958.40
2019-06-18T10:01:53.587Z,965.20
2019-06-18T10:02:54.202Z,892.60
2019-06-18T10:03:54.043Z,886.00
2019-06-18T10:04:53.461Z,866.30
2019-06-18T10:05:53.288Z,968.70
2019-06-18T10:06:53.319Z,919.90
2019-06-18T10:07:53.359Z,884.10
2019-06-18T10:08:53.417Z,867.60
2019-06-18T10:09:53.809Z,999.90
2019-06-18T10:10:53.492Z,989.00
2019-06-18T10:11:53.533Z,999.90
2019-06-18T10:12:53.564Z,982.90
2019-06-18T10:13:53.594Z,948.80
2019-06-18T10:14:53.678Z,936.60
2019-06-18T10:15:53.689Z,952.60
2019-06-18T10:16:53.725Z,925.20
2019-06-18T10:17:53.779Z,850.60
2019-06-18T10:18:53.844Z,834.30
2019-06-18T10:19:53.827Z,858.00
2019-06-18T10:20:53.960Z,828.60
2019-06-18T10:21:54.157Z,833.70
2019-06-18T10:22:54.020Z,935.30
2019-06-18T10:23:54.028Z,868.40
2019-06-18T10:24:54.085Z,993.70
2019-06-18T10:25:54.118Z,813.80
2019-06-18T10:26:54.148Z,842.50
2019-06-18T10:27:54.195Z,929.80
2019-06-18T10:29:17.201Z,823.20
2019-06-18T10:30:01.675Z,882.50
2019-06-18T10:30:54.314Z,795.90
2019-06-18T10:31:54.366Z,893.10
2019-06-18T10:32:54.396Z,940.80
2019-06-18T10:33:54.421Z,952.70
2019-06-18T10:34:54.463Z,988.90
2019-06-18T10:35:54.511Z,999.90
2019-06-18T10:36:54.548Z,984.90
2019-06-18T10:37:54.597Z,971.80
2019-06-18T10:38:54.638Z,999.90
2019-06-18T10:39:54.684Z,999.90
2019-06-18T10:40:54.730Z,997.70
2019-06-18T10:41:54.770Z,999.90
2019-06-18T10:42:54.843Z,982.60
2019-06-18T10:43:54.854Z,999.90
2019-06-18T10:44:54.883Z,999.90
2019-06-18T10:46:56.588Z,999.90
2019-06-18T10:47:55.001Z,999.90
2019-06-18T10:48:55.088Z,934.80
2019-06-18T10:49:55.094Z,934.40
2019-06-18T10:50:55.132Z,973.30
2019-06-18T10:52:00.351Z,999.90
2019-06-18T10:52:55.233Z,999.90
2019-06-18T10:53:55.259Z,972.00
2019-06-18T10:54:55.297Z,999.90
2019-06-18T10:55:55.338Z,999.90
2019-06-18T10:56:55.401Z,999.90
2019-06-18T10:57:55.437Z,999.90
2019-06-18T10:58:55.473Z,999.90
2019-06-18T10:59:55.506Z,999.90
2019-06-18T11:00:55.546Z,999.90
2019-06-18T11:01:55.574Z,844.30
2019-06-18T11:02:55.628Z,763.80
2019-06-18T11:03:55.679Z,741.40
2019-06-18T11:04:55.714Z,719.50
2019-06-18T11:05:55.797Z,735.40
2019-06-18T11:06:55.853Z,749.80
2019-06-18T11:08:02.945Z,810.70
2019-06-18T11:08:55.908Z,727.20
2019-06-18T11:09:55.936Z,665.20
2019-06-18T11:10:55.982Z,675.90
2019-06-18T11:11:56.032Z,700.50
2019-06-18T11:12:56.079Z,708.30
2019-06-18T11:14:07.745Z,757.00
2019-06-18T11:14:56.147Z,824.90
2019-06-18T11:15:56.210Z,811.00
2019-06-18T11:16:56.332Z,831.10
2019-06-18T11:17:56.329Z,906.40
2019-06-18T11:18:56.328Z,999.90
2019-06-18T11:19:56.398Z,924.50
2019-06-18T11:20:56.440Z,938.60
2019-06-18T11:22:09.480Z,999.90
2019-06-18T11:22:56.532Z,983.40
2019-06-18T11:23:56.547Z,999.90
2019-06-18T11:24:56.720Z,999.70
2019-06-18T11:25:56.688Z,996.20
2019-06-18T11:26:56.703Z,999.90
2019-06-18T11:27:56.741Z,999.90
2019-06-18T11:28:56.805Z,999.90
2019-06-18T11:29:56.833Z,999.90
2019-06-18T11:30:56.880Z,999.90
2019-06-18T11:31:56.959Z,999.90
2019-06-18T11:32:57.033Z,999.90
2019-06-18T11:33:57.030Z,999.90
2019-06-18T11:34:57.080Z,999.90
2019-06-18T11:35:57.123Z,999.90
2019-06-18T11:36:57.175Z,999.90
2019-06-18T11:37:57.245Z,999.90
2019-06-18T11:38:57.254Z,999.90
2019-06-18T11:39:57.321Z,999.90
2019-06-18T11:40:57.362Z,999.90
2019-06-18T11:41:57.408Z,999.90
2019-06-18T11:42:57.507Z,999.90
2019-06-18T11:43:57.484Z,999.90
2019-06-18T11:44:57.541Z,999.90
2019-06-18T11:45:57.600Z,999.90
2019-06-18T11:46:57.665Z,999.90
2019-06-18T11:47:57.741Z,999.90
2019-06-18T11:48:57.823Z,999.90
2019-06-18T11:49:57.840Z,999.90
2019-06-18T11:50:57.842Z,999.90
2019-06-18T11:52:57.959Z,999.90
2019-06-18T11:53:57.987Z,999.90
2019-06-18T11:54:58.045Z,999.90
2019-06-18T11:55:58.084Z,999.90
2019-06-18T11:56:58.137Z,999.90
2019-06-18T11:57:58.191Z,999.90
2019-06-18T11:58:58.232Z,999.90
2019-06-18T11:59:58.303Z,999.90
2019-06-18T12:00:58.333Z,999.90
2019-06-18T12:01:58.409Z,999.90
2019-06-18T12:02:58.438Z,999.90
2019-06-18T12:03:58.521Z,999.90
2019-06-18T12:04:58.534Z,999.90
2019-06-18T12:05:58.577Z,999.90
2019-06-18T12:06:58.640Z,999.90
2019-06-18T12:07:58.663Z,999.90
2019-06-18T12:08:58.727Z,999.90
2019-06-18T12:09:58.767Z,999.90
2019-06-18T12:11:02.323Z,999.90
2019-06-18T12:11:58.922Z,999.90
2019-06-18T12:12:58.948Z,999.90
2019-06-18T12:13:58.989Z,999.90
2019-06-18T12:14:59.021Z,999.90
2019-06-18T12:15:59.081Z,999.90
2019-06-18T12:16:59.127Z,999.90
2019-06-18T12:17:59.197Z,999.90
2019-06-18T12:18:59.277Z,999.90
2019-06-18T12:19:59.293Z,999.90
2019-06-18T12:20:59.343Z,999.90
2019-06-18T12:21:59.397Z,999.90
2019-06-18T12:22:59.414Z,999.90
2019-06-18T12:23:59.496Z,999.90
2019-06-18T12:25:02.423Z,999.90
2019-06-18T12:25:59.570Z,999.90
2019-06-18T12:26:59.664Z,999.90
2019-06-18T12:27:59.709Z,999.90
2019-06-18T12:28:59.722Z,999.90
2019-06-18T12:30:02.564Z,999.90
2019-06-18T12:30:59.838Z,999.90